Time;durP1;ratioP1;P1;durP2;ratioP2;P2;SDS_P1;SDS_P2;PMS_P1;PMS_P2;Temp;Humidity;BMP_temperature;BMP_pressure;BME280_temperature;BME280_humidity;BME280_pressure;Samples;Min_cycle;Max_cycle;Signal;HPM_P1;HPM_P2
2022/01/10 00:00:48;;;;;;;20.63;7.20;;;;;;;;;;5051567;28;20107;-68
2022/01/10 00:03:14;;;;;;;34.63;9.43;;;;;;;;;;5068393;28;20078;-67
2022/01/10 00:05:41;;;;;;;21.33;7.32;;;;;;;;;;5051576;28;20123;-68
2022/01/10 00:08:07;;;;;;;27.75;8.20;;;;;;;;;;5053669;28;20132;-67
2022/01/10 00:10:34;;;;;;;24.42;7.68;;;;;;;;;;5051592;28;20091;-67
2022/01/10 00:13:00;;;;;;;20.17;7.40;;;;;;;;;;5051242;28;20099;-68
2022/01/10 00:15:26;;;;;;;21.98;6.78;;;;;;;;;;5052796;28;20411;-68
2022/01/10 00:17:52;;;;;;;29.88;8.88;;;;;;;;;;5052831;28;20048;-67
2022/01/10 00:20:19;;;;;;;26.40;8.32;;;;;;;;;;5051570;28;20094;-68
2022/01/10 00:22:48;;;;;;;30.60;8.77;;;;;;;;;;5051160;28;20391;-68
2022/01/10 00:25:15;;;;;;;59.53;11.27;;;;;;;;;;5051804;28;20049;-67
2022/01/10 00:27:42;;;;;;;40.15;11.10;;;;;;;;;;5052810;28;20045;-67
2022/01/10 00:30:09;;;;;;;45.85;11.15;;;;;;;;;;5051343;28;20049;-68
2022/01/10 00:32:35;;;;;;;33.80;8.57;;;;;;;;;;5053050;28;20136;-68
2022/01/10 00:35:01;;;;;;;33.55;8.18;;;;;;;;;;5052600;28;20052;-68
2022/01/10 00:37:27;;;;;;;31.92;8.38;;;;;;;;;;5051791;28;20048;-68
2022/01/10 00:39:53;;;;;;;26.13;8.40;;;;;;;;;;5051633;28;20547;-68
2022/01/10 00:42:19;;;;;;;25.52;8.13;;;;;;;;;;5051639;28;20040;-67
2022/01/10 00:44:50;;;;;;;29.30;7.72;;;;;;;;;;5051146;28;20045;-67
2022/01/10 00:47:16;;;;;;;24.92;7.55;;;;;;;;;;5019121;28;20135;-68
2022/01/10 00:49:42;;;;;;;27.98;8.75;;;;;;;;;;5039675;28;20049;-68
2022/01/10 00:52:08;;;;;;;28.63;9.95;;;;;;;;;;5049564;28;20080;-68
2022/01/10 00:54:34;;;;;;;30.52;8.88;;;;;;;;;;5052165;28;20060;-68
2022/01/10 00:57:00;;;;;;;21.90;8.80;;;;;;;;;;5022551;28;20132;-68
2022/01/10 00:59:26;;;;;;;23.80;8.27;;;;;;;;;;5046856;28;20127;-68
2022/01/10 01:01:52;;;;;;;30.77;8.63;;;;;;;;;;5050900;28;20049;-68
2022/01/10 01:04:19;;;;;;;25.27;9.30;;;;;;;;;;5050961;28;20052;-68
2022/01/10 01:06:45;;;;;;;22.98;8.75;;;;;;;;;;5053125;28;20076;-68
2022/01/10 01:09:15;;;;;;;26.98;8.70;;;;;;;;;;5052421;28;20083;-68
2022/01/10 01:15:19;;;;;;;36.50;9.52;;;;;;;;;;5041670;28;20491;-68
2022/01/10 01:17:33;;;;;;;28.27;10.02;;;;;;;;;;5047217;28;20095;-68
2022/01/10 01:25:11;;;;;;;28.58;9.25;;;;;;;;;;5053028;28;20061;-67
2022/01/10 01:27:38;;;;;;;25.42;9.88;;;;;;;;;;5038786;28;20052;-67
2022/01/10 01:30:04;;;;;;;26.80;8.27;;;;;;;;;;5023914;28;20042;-66
2022/01/10 01:32:30;;;;;;;30.10;9.15;;;;;;;;;;5042520;28;20053;-67
2022/01/10 01:35:03;;;;;;;25.73;9.00;;;;;;;;;;5055844;28;20056;-66
2022/01/10 01:37:29;;;;;;;26.45;8.85;;;;;;;;;;5033626;28;20055;-67
2022/01/10 01:39:55;;;;;;;23.20;8.88;;;;;;;;;;5022857;28;20072;-67
2022/01/10 01:42:40;;;;;;;28.50;8.65;;;;;;;;;;5056774;28;20400;-67
2022/01/10 01:45:07;;;;;;;20.27;8.57;;;;;;;;;;5054430;28;20051;-67
2022/01/10 01:47:33;;;;;;;24.75;8.85;;;;;;;;;;5055750;28;20056;-67
2022/01/10 01:49:59;;;;;;;21.92;8.80;;;;;;;;;;5054245;28;20049;-67
2022/01/10 01:52:26;;;;;;;24.95;8.68;;;;;;;;;;5055673;28;20045;-67
2022/01/10 01:54:52;;;;;;;25.77;8.90;;;;;;;;;;5054376;28;20048;-68
2022/01/10 01:57:19;;;;;;;29.73;9.90;;;;;;;;;;5054860;28;20041;-67
2022/01/10 01:59:45;;;;;;;39.83;10.38;;;;;;;;;;5055548;28;20041;-67
2022/01/10 02:02:11;;;;;;;51.85;12.63;;;;;;;;;;5037290;28;20041;-67
2022/01/10 02:04:37;;;;;;;34.58;9.98;;;;;;;;;;5050854;28;20045;-67
2022/01/10 02:07:04;;;;;;;43.72;12.95;;;;;;;;;;5037433;28;20048;-67
2022/01/10 02:09:30;;;;;;;39.22;10.93;;;;;;;;;;5055502;28;20049;-66
2022/01/10 02:11:57;;;;;;;33.22;11.50;;;;;;;;;;5054447;28;20407;-66
2022/01/10 02:14:23;;;;;;;36.55;11.70;;;;;;;;;;5053699;28;20125;-67
2022/01/10 02:16:55;;;;;;;51.03;13.65;;;;;;;;;;5053858;28;20057;-66
2022/01/10 02:19:21;;;;;;;32.55;11.35;;;;;;;;;;5055798;28;20502;-67
2022/01/10 02:21:47;;;;;;;30.83;10.95;;;;;;;;;;5053760;28;20049;-66
2022/01/10 02:24:13;;;;;;;43.60;11.98;;;;;;;;;;5054875;28;20051;-66
2022/01/10 02:26:39;;;;;;;34.15;11.57;;;;;;;;;;5053421;28;20060;-67
2022/01/10 02:29:06;;;;;;;46.50;12.98;;;;;;;;;;5055373;28;20049;-67
2022/01/10 02:31:35;;;;;;;40.90;12.05;;;;;;;;;;5054072;28;20037;-68
2022/01/10 02:34:01;;;;;;;29.77;11.20;;;;;;;;;;5052969;28;20103;-67
2022/01/10 02:36:27;;;;;;;35.08;12.00;;;;;;;;;;5054065;28;20084;-67
2022/01/10 02:38:54;;;;;;;35.38;11.82;;;;;;;;;;5054469;28;20080;-67
2022/01/10 02:41:25;;;;;;;42.25;12.88;;;;;;;;;;5054450;28;20467;-67
2022/01/10 02:43:51;;;;;;;26.33;11.50;;;;;;;;;;5053150;28;20095;-67
2022/01/10 02:46:17;;;;;;;30.65;10.95;;;;;;;;;;5054609;28;20466;-67
2022/01/10 02:48:44;;;;;;;27.55;10.18;;;;;;;;;;5052881;28;20080;-67
2022/01/10 02:51:09;;;;;;;35.60;11.45;;;;;;;;;;5053166;28;20393;-68
2022/01/10 02:53:36;;;;;;;29.10;11.18;;;;;;;;;;5054573;28;20051;-67
2022/01/10 02:56:02;;;;;;;36.90;11.82;;;;;;;;;;5052685;28;20043;-67
2022/01/10 02:58:28;;;;;;;33.42;12.30;;;;;;;;;;5053657;28;20131;-67
2022/01/10 03:00:54;;;;;;;137.05;25.75;;;;;;;;;;5054071;28;20040;-67
2022/01/10 03:03:20;;;;;;;83.75;20.05;;;;;;;;;;5054295;28;20049;-67
2022/01/10 03:05:46;;;;;;;89.13;20.20;;;;;;;;;;5053305;28;20106;-68
2022/01/10 03:08:12;;;;;;;63.15;18.55;;;;;;;;;;5053622;28;20049;-67
2022/01/10 03:10:38;;;;;;;92.07;20.10;;;;;;;;;;5035975;28;20348;-67
2022/01/10 03:13:04;;;;;;;53.78;17.42;;;;;;;;;;5052910;28;20064;-68
2022/01/10 03:15:30;;;;;;;40.90;14.45;;;;;;;;;;5036650;28;20041;-68
2022/01/10 03:17:56;;;;;;;46.67;15.13;;;;;;;;;;5053116;28;20056;-67
2022/01/10 03:20:23;;;;;;;48.05;15.70;;;;;;;;;;5019039;28;20037;-67
2022/01/10 03:22:49;;;;;;;60.33;17.48;;;;;;;;;;5036303;28;20124;-67
2022/01/10 03:25:15;;;;;;;50.25;15.85;;;;;;;;;;5052903;28;20076;-67
2022/01/10 03:27:41;;;;;;;46.85;15.18;;;;;;;;;;5052531;28;20441;-67
2022/01/10 03:30:08;;;;;;;41.92;15.32;;;;;;;;;;5054778;28;20045;-67
2022/01/10 03:32:34;;;;;;;41.72;15.23;;;;;;;;;;5053780;28;20052;-67
2022/01/10 03:35:00;;;;;;;46.15;15.05;;;;;;;;;;5051830;28;20053;-67
2022/01/10 03:37:26;;;;;;;48.15;16.08;;;;;;;;;;5053925;28;20148;-67
2022/01/10 03:39:52;;;;;;;49.22;16.27;;;;;;;;;;5051953;28;20548;-67
2022/01/10 03:42:18;;;;;;;53.55;16.48;;;;;;;;;;5051484;28;20045;-68
2022/01/10 03:44:44;;;;;;;45.08;15.88;;;;;;;;;;5052589;28;20044;-67
2022/01/10 03:47:10;;;;;;;63.75;16.98;;;;;;;;;;5053455;28;20041;-69
2022/01/10 03:49:37;;;;;;;42.42;17.38;;;;;;;;;;5052863;28;20544;-67
2022/01/10 03:52:03;;;;;;;51.03;17.40;;;;;;;;;;5052005;28;20122;-68
2022/01/10 03:54:29;;;;;;;56.83;17.35;;;;;;;;;;5034913;28;20106;-67
2022/01/10 03:56:55;;;;;;;48.85;16.90;;;;;;;;;;5052203;28;20491;-67
2022/01/10 03:59:21;;;;;;;52.03;17.50;;;;;;;;;;5052589;28;20053;-66
2022/01/10 04:01:50;;;;;;;49.25;16.55;;;;;;;;;;5031142;28;20393;-66
2022/01/10 04:04:17;;;;;;;48.33;16.02;;;;;;;;;;5051486;28;20120;-67
2022/01/10 04:06:43;;;;;;;48.58;15.63;;;;;;;;;;5035792;28;20045;-68
2022/01/10 04:09:09;;;;;;;44.58;16.80;;;;;;;;;;5053211;28;20053;-68
2022/01/10 04:11:35;;;;;;;53.83;16.80;;;;;;;;;;5035004;28;20057;-65
2022/01/10 04:14:01;;;;;;;45.50;16.38;;;;;;;;;;5052182;28;20040;-66
2022/01/10 04:16:27;;;;;;;42.08;16.33;;;;;;;;;;5051848;28;20052;-66
2022/01/10 04:18:53;;;;;;;44.50;17.45;;;;;;;;;;5051031;28;20049;-66
2022/01/10 04:21:19;;;;;;;44.65;17.35;;;;;;;;;;5051602;28;20049;-66
2022/01/10 04:23:45;;;;;;;41.15;14.52;;;;;;;;;;5052682;28;20531;-66
2022/01/10 04:26:11;;;;;;;56.60;17.27;;;;;;;;;;5034878;28;20056;-66
2022/01/10 04:28:38;;;;;;;47.08;17.23;;;;;;;;;;5051471;28;20121;-66
2022/01/10 04:31:04;;;;;;;53.00;17.10;;;;;;;;;;5053614;28;20053;-66
2022/01/10 04:33:31;;;;;;;47.00;17.20;;;;;;;;;;5050805;28;20182;-66
2022/01/10 04:35:57;;;;;;;52.22;17.92;;;;;;;;;;5051276;28;20128;-66
2022/01/10 04:38:25;;;;;;;48.83;17.38;;;;;;;;;;5051192;28;20071;-66
2022/01/10 04:40:51;;;;;;;44.05;15.60;;;;;;;;;;5050863;28;20506;-67
2022/01/10 04:43:17;;;;;;;52.05;17.38;;;;;;;;;;5052519;28;20091;-67
2022/01/10 04:45:43;;;;;;;47.08;17.95;;;;;;;;;;5020209;28;20045;-66
2022/01/10 04:48:10;;;;;;;52.30;18.80;;;;;;;;;;5040514;28;20379;-67
2022/01/10 04:53:08;;;;;;;62.47;19.88;;;;;;;;;;5051141;28;20098;-66
2022/01/10 04:55:34;;;;;;;47.45;18.90;;;;;;;;;;5052110;28;20041;-68
2022/01/10 04:58:00;;;;;;;57.75;19.17;;;;;;;;;;5051713;28;20045;-66
2022/01/10 05:00:26;;;;;;;64.38;20.77;;;;;;;;;;5054150;28;20044;-67
2022/01/10 05:02:53;;;;;;;70.20;22.45;;;;;;;;;;5056310;28;20376;-67
2022/01/10 05:05:19;;;;;;;66.25;21.83;;;;;;;;;;5056435;28;20068;-66
2022/01/10 05:07:45;;;;;;;55.03;21.35;;;;;;;;;;5055535;28;20387;-67
2022/01/10 05:10:11;;;;;;;78.25;24.95;;;;;;;;;;5055343;28;20056;-66
2022/01/10 05:12:37;;;;;;;70.28;23.33;;;;;;;;;;5054965;28;20040;-67
2022/01/10 05:15:03;;;;;;;54.75;20.92;;;;;;;;;;5056176;28;20055;-66
2022/01/10 05:17:30;;;;;;;60.38;22.13;;;;;;;;;;5030128;28;20110;-68
2022/01/10 05:19:56;;;;;;;59.03;21.20;;;;;;;;;;5055336;28;20127;-66
2022/01/10 05:22:21;;;;;;;60.50;21.10;;;;;;;;;;5056160;28;20121;-67
2022/01/10 05:24:47;;;;;;;53.28;21.65;;;;;;;;;;5046019;28;20132;-67
2022/01/10 05:27:13;;;;;;;64.68;22.25;;;;;;;;;;5055969;28;20098;-67
2022/01/10 05:29:39;;;;;;;53.58;20.95;;;;;;;;;;5055589;28;20136;-67
2022/01/10 05:32:05;;;;;;;70.43;23.25;;;;;;;;;;5037552;28;20463;-68
2022/01/10 05:34:31;;;;;;;58.65;22.77;;;;;;;;;;5024048;28;20148;-67
2022/01/10 05:36:58;;;;;;;59.00;20.60;;;;;;;;;;5047041;28;20068;-68
2022/01/10 05:39:23;;;;;;;68.63;25.15;;;;;;;;;;5049526;28;20045;-68
2022/01/10 05:41:49;;;;;;;59.58;23.00;;;;;;;;;;5027478;28;20056;-67
2022/01/10 05:44:15;;;;;;;55.80;23.30;;;;;;;;;;5037693;28;20041;-68
2022/01/10 05:46:42;;;;;;;90.32;29.08;;;;;;;;;;5055967;28;20049;-68
2022/01/10 05:49:11;;;;;;;81.03;26.45;;;;;;;;;;5054555;28;20368;-68
2022/01/10 05:51:38;;;;;;;72.00;25.90;;;;;;;;;;5055466;28;20060;-68
2022/01/10 05:54:05;;;;;;;71.28;26.20;;;;;;;;;;5054298;28;20049;-67
2022/01/10 05:56:32;;;;;;;63.67;23.33;;;;;;;;;;5042784;28;20049;-68
2022/01/10 05:58:58;;;;;;;67.38;25.10;;;;;;;;;;5045259;28;20041;-66
2022/01/10 06:01:24;;;;;;;67.28;24.95;;;;;;;;;;5027156;28;20399;-67
2022/01/10 06:03:50;;;;;;;74.82;26.45;;;;;;;;;;5056092;28;20060;-67
2022/01/10 06:06:16;;;;;;;68.90;26.27;;;;;;;;;;5054086;28;20094;-67
2022/01/10 06:08:42;;;;;;;57.70;24.77;;;;;;;;;;5054409;28;20422;-66
2022/01/10 06:11:08;;;;;;;57.22;24.77;;;;;;;;;;5037090;28;20079;-68
2022/01/10 06:13:34;;;;;;;57.60;24.88;;;;;;;;;;5055358;28;20053;-68
2022/01/10 06:16:00;;;;;;;66.13;26.00;;;;;;;;;;5054047;28;20110;-67
2022/01/10 06:18:26;;;;;;;58.42;25.10;;;;;;;;;;5037089;28;20051;-67
2022/01/10 06:20:52;;;;;;;64.45;26.75;;;;;;;;;;5037118;28;20104;-67
2022/01/10 06:23:18;;;;;;;72.00;25.92;;;;;;;;;;5055521;28;20045;-67
2022/01/10 06:25:44;;;;;;;61.28;26.42;;;;;;;;;;5037132;28;20041;-67
2022/01/10 06:28:10;;;;;;;61.15;26.00;;;;;;;;;;5053561;28;20472;-67
2022/01/10 06:30:36;;;;;;;72.40;28.10;;;;;;;;;;5053639;28;20063;-67
2022/01/10 06:33:02;;;;;;;73.97;27.48;;;;;;;;;;5052973;28;20134;-67
2022/01/10 06:35:28;;;;;;;77.78;27.15;;;;;;;;;;5037169;28;20061;-67
2022/01/10 06:37:54;;;;;;;228.95;46.20;;;;;;;;;;5053744;28;20041;-67
2022/01/10 06:40:21;;;;;;;131.60;34.60;;;;;;;;;;5054800;28;20041;-67
2022/01/10 06:42:47;;;;;;;90.18;31.10;;;;;;;;;;5037361;28;20494;-67
2022/01/10 06:45:13;;;;;;;79.15;30.42;;;;;;;;;;5036665;28;20134;-67
2022/01/10 06:47:40;;;;;;;86.75;32.92;;;;;;;;;;5053055;28;20048;-67
2022/01/10 06:50:06;;;;;;;78.20;30.90;;;;;;;;;;5054628;28;20407;-67
2022/01/10 06:52:32;;;;;;;81.22;29.48;;;;;;;;;;5052837;28;20567;-68
2022/01/10 06:54:58;;;;;;;73.50;29.17;;;;;;;;;;5053789;28;20124;-67
2022/01/10 06:57:24;;;;;;;73.10;28.40;;;;;;;;;;5053337;28;20388;-67
2022/01/10 06:59:51;;;;;;;102.18;30.80;;;;;;;;;;5053104;28;20045;-66
2022/01/10 07:02:17;;;;;;;85.50;30.90;;;;;;;;;;5053036;28;20052;-67
2022/01/10 07:04:43;;;;;;;243.90;49.65;;;;;;;;;;5054114;28;20041;-67
2022/01/10 07:07:12;;;;;;;;;;;;;;;;;;5055321;28;20403;-67
2022/01/10 07:09:38;;;;;;;83.13;28.98;;;;;;;;;;5053857;28;19921;-67
2022/01/10 07:12:04;;;;;;;97.63;32.42;;;;;;;;;;5053994;28;20053;-67
2022/01/10 07:14:33;;;;;;;152.55;41.05;;;;;;;;;;5054295;28;20045;-68
2022/01/10 07:16:59;;;;;;;115.53;37.13;;;;;;;;;;5046448;28;20053;-67
2022/01/10 07:19:25;;;;;;;260.60;53.90;;;;;;;;;;5048487;28;20166;-67
2022/01/10 07:21:51;;;;;;;137.77;40.22;;;;;;;;;;5053614;28;20056;-67
2022/01/10 07:24:17;;;;;;;176.45;43.83;;;;;;;;;;5051399;28;20049;-67
2022/01/10 07:26:44;;;;;;;157.25;41.17;;;;;;;;;;5052032;28;20079;-66
2022/01/10 07:29:11;;;;;;;111.30;34.53;;;;;;;;;;5052285;28;20055;-66
2022/01/10 07:31:38;;;;;;;121.55;37.67;;;;;;;;;;5053334;28;20053;-67
2022/01/10 07:34:04;;;;;;;182.57;44.65;;;;;;;;;;5035471;28;20072;-66
2022/01/10 07:36:30;;;;;;;114.88;34.95;;;;;;;;;;5053884;28;20049;-66
2022/01/10 07:38:56;;;;;;;114.13;38.47;;;;;;;;;;5054008;28;20080;-66
2022/01/10 07:41:22;;;;;;;106.93;36.33;;;;;;;;;;5053512;28;20091;-66
2022/01/10 07:43:49;;;;;;;134.88;39.45;;;;;;;;;;5031904;28;20041;-65
2022/01/10 07:46:15;;;;;;;211.50;48.42;;;;;;;;;;5050631;28;20067;-66
2022/01/10 07:48:42;;;;;;;152.13;43.42;;;;;;;;;;5035838;28;20080;-66
2022/01/10 07:51:11;;;;;;;171.30;47.10;;;;;;;;;;5035344;28;20045;-67
2022/01/10 07:53:38;;;;;;;132.48;42.63;;;;;;;;;;5053343;28;20045;-66
2022/01/10 07:56:04;;;;;;;150.52;47.58;;;;;;;;;;5052738;28;20394;-67
2022/01/10 07:58:30;;;;;;;132.93;42.72;;;;;;;;;;5052189;28;20502;-67
2022/01/10 08:00:57;;;;;;;259.08;58.08;;;;;;;;;;5052653;28;20079;-67
2022/01/10 08:03:23;;;;;;;111.43;38.35;;;;;;;;;;5053137;28;20037;-66
2022/01/10 08:05:49;;;;;;;119.22;43.28;;;;;;;;;;5051769;28;20049;-67
2022/01/10 08:08:15;;;;;;;145.73;45.47;;;;;;;;;;5052708;28;20423;-66
2022/01/10 08:10:41;;;;;;;172.80;48.88;;;;;;;;;;5052691;28;20070;-67
2022/01/10 08:13:07;;;;;;;203.18;50.80;;;;;;;;;;5051601;28;20045;-66
2022/01/10 08:15:33;;;;;;;151.93;47.85;;;;;;;;;;5051498;28;20045;-66
2022/01/10 08:17:59;;;;;;;129.38;43.95;;;;;;;;;;5051505;28;20179;-67
2022/01/10 08:20:25;;;;;;;117.85;43.45;;;;;;;;;;5051930;28;20459;-67
2022/01/10 08:22:51;;;;;;;96.07;39.53;;;;;;;;;;5052622;28;20041;-66
2022/01/10 08:25:17;;;;;;;90.78;38.08;;;;;;;;;;5035328;28;20041;-66
2022/01/10 08:27:45;;;;;;;110.22;39.72;;;;;;;;;;5030994;28;20047;-66
2022/01/10 08:30:11;;;;;;;103.90;40.03;;;;;;;;;;5051367;28;20376;-66
2022/01/10 08:32:37;;;;;;;97.80;38.10;;;;;;;;;;5053288;28;20057;-65
2022/01/10 08:35:04;;;;;;;112.57;38.78;;;;;;;;;;5050338;28;20045;-66
2022/01/10 08:37:30;;;;;;;235.52;57.80;;;;;;;;;;5017493;28;20056;-66
2022/01/10 08:39:56;;;;;;;250.80;60.00;;;;;;;;;;5052793;28;20049;-66
2022/01/10 08:42:23;;;;;;;139.60;46.08;;;;;;;;;;5051266;28;20041;-67
2022/01/10 08:44:49;;;;;;;275.25;64.32;;;;;;;;;;5051208;28;20045;-67
2022/01/10 08:47:16;;;;;;;111.40;41.47;;;;;;;;;;5023080;28;20135;-67
2022/01/10 08:49:42;;;;;;;241.98;60.05;;;;;;;;;;5017809;28;20046;-66
2022/01/10 08:52:08;;;;;;;137.05;45.42;;;;;;;;;;5052003;28;20063;-66
2022/01/10 08:54:34;;;;;;;173.20;50.08;;;;;;;;;;5034200;28;20052;-66
2022/01/10 08:57:01;;;;;;;127.32;46.45;;;;;;;;;;5053251;28;20053;-67
2022/01/10 08:59:28;;;;;;;161.07;49.05;;;;;;;;;;5051209;28;20382;-66
2022/01/10 09:01:56;;;;;;;134.80;48.15;;;;;;;;;;5052383;28;20044;-66
2022/01/10 09:04:22;;;;;;;138.57;47.83;;;;;;;;;;5051029;28;20048;-67
2022/01/10 09:06:50;;;;;;;162.20;51.45;;;;;;;;;;5034426;28;20041;-67
2022/01/10 09:09:16;;;;;;;173.93;55.00;;;;;;;;;;5051826;28;20049;-67
2022/01/10 09:11:43;;;;;;;149.55;52.45;;;;;;;;;;5021777;28;20049;-67
2022/01/10 09:14:09;;;;;;;107.43;41.58;;;;;;;;;;5050863;28;20087;-68
2022/01/10 09:16:35;;;;;;;174.85;55.78;;;;;;;;;;5050822;28;20045;-67
2022/01/10 09:19:01;;;;;;;211.63;60.97;;;;;;;;;;5018347;28;20128;-67
2022/01/10 09:21:27;;;;;;;299.08;68.75;;;;;;;;;;5052408;28;20135;-68
2022/01/10 09:23:53;;;;;;;165.15;56.53;;;;;;;;;;5016687;28;20042;-67
2022/01/10 09:26:20;;;;;;;207.20;62.85;;;;;;;;;;5052794;28;20053;-67
2022/01/10 09:28:46;;;;;;;148.02;54.58;;;;;;;;;;5050958;28;20131;-67
2022/01/10 09:31:12;;;;;;;178.93;61.10;;;;;;;;;;5050923;28;20045;-67
2022/01/10 09:33:38;;;;;;;184.23;62.90;;;;;;;;;;5050739;28;20136;-68
2022/01/10 09:36:04;;;;;;;206.98;66.55;;;;;;;;;;5051653;28;20538;-67
2022/01/10 09:38:30;;;;;;;185.73;62.42;;;;;;;;;;5051027;28;20049;-67
2022/01/10 09:40:56;;;;;;;203.60;66.57;;;;;;;;;;5050630;28;20049;-67
2022/01/10 09:43:22;;;;;;;185.15;63.90;;;;;;;;;;5052845;28;20068;-67
2022/01/10 09:45:51;;;;;;;183.50;65.45;;;;;;;;;;5051213;28;20049;-67
2022/01/10 09:48:17;;;;;;;205.77;65.88;;;;;;;;;;5027182;28;20042;-67
2022/01/10 09:50:43;;;;;;;196.48;69.65;;;;;;;;;;5054914;28;20490;-66
2022/01/10 09:53:10;;;;;;;207.23;70.93;;;;;;;;;;5037806;28;20051;-66
2022/01/10 09:55:37;;;;;;;206.50;72.10;;;;;;;;;;5054280;28;20060;-66
2022/01/10 09:58:03;;;;;;;200.95;71.70;;;;;;;;;;5054769;28;20531;-66
2022/01/10 10:00:30;;;;;;;215.43;73.15;;;;;;;;;;5054242;28;20045;-66
2022/01/10 10:02:56;;;;;;;188.90;67.35;;;;;;;;;;5054373;28;20077;-66
2022/01/10 10:05:22;;;;;;;208.30;72.68;;;;;;;;;;5054326;28;20450;-66
2022/01/10 10:07:48;;;;;;;203.93;72.35;;;;;;;;;;5034799;28;20045;-67
2022/01/10 10:10:14;;;;;;;199.63;72.38;;;;;;;;;;5055623;28;20048;-67
2022/01/10 10:12:41;;;;;;;213.88;75.93;;;;;;;;;;5056357;28;20045;-66
2022/01/10 10:15:08;;;;;;;211.52;71.15;;;;;;;;;;5051334;28;20049;-67
2022/01/10 10:17:35;;;;;;;202.10;71.63;;;;;;;;;;5030265;28;20049;-67
2022/01/10 10:20:06;;;;;;;183.23;67.35;;;;;;;;;;5053972;28;20044;-67
2022/01/10 10:22:32;;;;;;;189.02;69.22;;;;;;;;;;5053514;28;20041;-68
2022/01/10 10:24:58;;;;;;;165.10;66.50;;;;;;;;;;5049440;28;20045;-67
2022/01/10 10:27:24;;;;;;;148.25;60.55;;;;;;;;;;5034429;28;20479;-66
2022/01/10 10:29:50;;;;;;;119.18;52.88;;;;;;;;;;5055263;28;20037;-67
2022/01/10 10:32:16;;;;;;;111.88;48.92;;;;;;;;;;5049422;28;20049;-67
2022/01/10 10:34:43;;;;;;;242.48;67.53;;;;;;;;;;5034429;28;20049;-67
2022/01/10 10:37:13;;;;;;;108.70;44.35;;;;;;;;;;5039560;28;20126;-67
2022/01/10 10:39:41;;;;;;;65.90;34.28;;;;;;;;;;5054302;28;22211;-69
2022/01/10 10:42:08;;;;;;;76.18;31.25;;;;;;;;;;5055704;28;20053;-67
2022/01/10 10:44:34;;;;;;;48.35;25.92;;;;;;;;;;5054497;28;20060;-67
2022/01/10 10:47:00;;;;;;;43.40;24.98;;;;;;;;;;5056757;28;20487;-67
2022/01/10 10:49:32;;;;;;;43.35;23.83;;;;;;;;;;5055514;28;20079;-68
2022/01/10 10:52:00;;;;;;;35.85;21.98;;;;;;;;;;5029156;28;20049;-68
2022/01/10 10:54:26;;;;;;;43.22;21.85;;;;;;;;;;5053022;28;20059;-68
2022/01/10 10:56:52;;;;;;;42.65;21.70;;;;;;;;;;5053294;28;20048;-68
2022/01/10 10:59:18;;;;;;;36.95;20.75;;;;;;;;;;5054548;28;20041;-68
2022/01/10 11:01:44;;;;;;;31.60;19.05;;;;;;;;;;5053518;28;20049;-68
2022/01/10 11:04:11;;;;;;;36.53;20.67;;;;;;;;;;5052695;28;20052;-69
2022/01/10 11:06:39;;;;;;;33.38;19.92;;;;;;;;;;5036486;28;20681;-69
2022/01/10 11:09:06;;;;;;;32.63;19.95;;;;;;;;;;5037583;28;20056;-69
2022/01/10 11:11:33;;;;;;;34.25;18.75;;;;;;;;;;5052997;28;20085;-68
2022/01/10 11:14:00;;;;;;;35.38;19.38;;;;;;;;;;5054515;28;20128;-68
2022/01/10 11:16:26;;;;;;;55.78;21.67;;;;;;;;;;5037473;28;20045;-69
2022/01/10 11:18:54;;;;;;;34.83;18.80;;;;;;;;;;5052955;28;20076;-69
2022/01/10 11:21:23;;;;;;;41.13;20.40;;;;;;;;;;5053129;28;20083;-68
2022/01/10 11:23:50;;;;;;;31.73;18.35;;;;;;;;;;5054125;28;20045;-68
2022/01/10 11:26:17;;;;;;;31.92;18.13;;;;;;;;;;5052290;28;20048;-68
2022/01/10 11:28:50;;;;;;;29.17;17.70;;;;;;;;;;5053628;28;20045;-68
2022/01/10 11:31:22;;;;;;;32.50;17.95;;;;;;;;;;5052174;28;20123;-68
2022/01/10 11:33:48;;;;;;;36.42;18.33;;;;;;;;;;5032024;28;20132;-69
2022/01/10 11:36:15;;;;;;;29.27;17.25;;;;;;;;;;5050066;28;20526;-68
2022/01/10 11:38:44;;;;;;;29.63;16.90;;;;;;;;;;5043739;28;20059;-69
2022/01/10 11:41:37;;;;;;;34.45;18.63;;;;;;;;;;5051791;28;20110;-68
2022/01/10 11:44:12;;;;;;;30.65;17.73;;;;;;;;;;5048710;28;20099;-69
2022/01/10 11:46:42;;;;;;;26.95;16.67;;;;;;;;;;5054258;28;20407;-69
2022/01/10 11:49:08;;;;;;;36.17;17.00;;;;;;;;;;5052584;28;20078;-68
2022/01/10 11:51:53;;;;;;;29.70;16.05;;;;;;;;;;5052589;28;20128;-69
2022/01/10 11:54:28;;;;;;;30.45;16.60;;;;;;;;;;5036350;28;20052;-68
2022/01/10 11:56:55;;;;;;;32.92;16.10;;;;;;;;;;5051071;28;20132;-69
2022/01/10 11:59:26;;;;;;;27.90;16.13;;;;;;;;;;5053198;28;20053;-69
2022/01/10 12:01:59;;;;;;;29.50;16.40;;;;;;;;;;5049369;28;20033;-69
2022/01/10 12:04:27;;;;;;;26.00;16.05;;;;;;;;;;5048685;28;20037;-68
2022/01/10 12:06:53;;;;;;;24.38;15.73;;;;;;;;;;5046437;28;20056;-69
2022/01/10 12:09:19;;;;;;;34.60;17.77;;;;;;;;;;5027171;28;20053;-69
2022/01/10 12:11:46;;;;;;;29.02;16.65;;;;;;;;;;5048867;28;20041;-68
2022/01/10 12:14:13;;;;;;;28.02;16.92;;;;;;;;;;5052432;28;20057;-69
2022/01/10 12:16:39;;;;;;;39.72;18.40;;;;;;;;;;5052925;28;20127;-69
2022/01/10 12:19:06;;;;;;;30.80;18.40;;;;;;;;;;5053774;28;20403;-68
2022/01/10 12:21:32;;;;;;;32.92;18.75;;;;;;;;;;5052463;28;20037;-69
2022/01/10 12:23:58;;;;;;;30.25;18.70;;;;;;;;;;5053539;28;20044;-69
2022/01/10 12:26:25;;;;;;;38.08;19.92;;;;;;;;;;5050735;28;20049;-68
2022/01/10 12:28:51;;;;;;;51.83;22.42;;;;;;;;;;5053668;28;20041;-68
2022/01/10 12:31:18;;;;;;;35.25;20.27;;;;;;;;;;5035816;28;20060;-68
2022/01/10 12:33:44;;;;;;;27.35;17.23;;;;;;;;;;5052958;28;20053;-68
2022/01/10 12:36:11;;;;;;;31.85;17.05;;;;;;;;;;5052101;28;20106;-68
2022/01/10 12:38:38;;;;;;;30.77;16.55;;;;;;;;;;5051763;28;20093;-68
2022/01/10 12:41:04;;;;;;;34.05;16.08;;;;;;;;;;5052025;28;20057;-68
2022/01/10 12:43:30;;;;;;;23.10;14.23;;;;;;;;;;5052677;28;20051;-68
2022/01/10 12:45:56;;;;;;;23.33;14.68;;;;;;;;;;5050166;28;20096;-69
2022/01/10 12:48:26;;;;;;;55.33;19.60;;;;;;;;;;5051046;28;20045;-68
2022/01/10 12:50:53;;;;;;;27.98;15.60;;;;;;;;;;5033111;28;20048;-70
2022/01/10 12:53:19;;;;;;;23.75;13.90;;;;;;;;;;5052273;28;20053;-69
2022/01/10 12:55:45;;;;;;;22.73;13.27;;;;;;;;;;5049270;28;20526;-68
2022/01/10 12:58:11;;;;;;;23.63;14.23;;;;;;;;;;5051926;28;20045;-68
2022/01/10 13:00:37;;;;;;;27.38;15.70;;;;;;;;;;5054613;28;20044;-69
2022/01/10 13:03:04;;;;;;;23.20;14.15;;;;;;;;;;5054307;28;20052;-69
2022/01/10 13:05:32;;;;;;;25.55;14.60;;;;;;;;;;5053519;28;20048;-69
2022/01/10 13:07:59;;;;;;;24.92;14.60;;;;;;;;;;5053033;28;20037;-69
2022/01/10 13:10:32;;;;;;;54.15;18.92;;;;;;;;;;5053570;28;20072;-69
2022/01/10 13:13:01;;;;;;;24.42;15.23;;;;;;;;;;5054005;28;20053;-69
2022/01/10 13:15:39;;;;;;;36.15;15.82;;;;;;;;;;5053692;28;20049;-69
2022/01/10 13:18:05;;;;;;;23.47;14.60;;;;;;;;;;5036346;28;20059;-69
2022/01/10 13:20:39;;;;;;;37.90;17.42;;;;;;;;;;5054047;28;20052;-69
2022/01/10 13:23:06;;;;;;;23.00;15.02;;;;;;;;;;5055708;28;20060;-69
2022/01/10 13:25:33;;;;;;;23.73;14.95;;;;;;;;;;5056293;28;20471;-69
2022/01/10 13:28:00;;;;;;;25.75;15.02;;;;;;;;;;5038487;28;20099;-69
2022/01/10 13:30:26;;;;;;;30.48;15.75;;;;;;;;;;5055453;28;20049;-69
2022/01/10 13:33:00;;;;;;;25.33;15.93;;;;;;;;;;5038351;28;20091;-69
2022/01/10 13:35:26;;;;;;;64.53;21.88;;;;;;;;;;5057305;28;20052;-69
2022/01/10 13:38:10;;;;;;;24.77;15.02;;;;;;;;;;5056927;28;20049;-69
2022/01/10 13:40:42;;;;;;;25.55;14.73;;;;;;;;;;5032048;28;20037;-70
2022/01/10 13:43:10;;;;;;;25.92;14.77;;;;;;;;;;5039313;28;20391;-69
2022/01/10 13:45:56;;;;;;;92.13;27.40;;;;;;;;;;5060503;28;20053;-68
2022/01/10 13:48:26;;;;;;;46.80;19.20;;;;;;;;;;5051773;28;20503;-68
2022/01/10 13:50:56;;;;;;;42.67;19.02;;;;;;;;;;5063160;28;20101;-67
2022/01/10 13:53:27;;;;;;;69.13;22.83;;;;;;;;;;5061549;28;20071;-66
2022/01/10 13:56:13;;;;;;;44.38;18.35;;;;;;;;;;5059766;28;20044;-67
2022/01/10 13:58:49;;;;;;;58.10;20.00;;;;;;;;;;5057210;28;20033;-67
2022/01/10 14:01:19;;;;;;;34.75;17.23;;;;;;;;;;5056994;28;20074;-66
2022/01/10 14:03:46;;;;;;;31.38;16.73;;;;;;;;;;5060249;28;20045;-66
2022/01/10 14:06:13;;;;;;;48.42;20.05;;;;;;;;;;5056688;28;20064;-66
2022/01/10 14:08:40;;;;;;;31.00;15.77;;;;;;;;;;5037487;28;20045;-66
2022/01/10 14:11:06;;;;;;;43.33;17.90;;;;;;;;;;5051797;28;20388;-66
2022/01/10 14:13:33;;;;;;;32.25;16.98;;;;;;;;;;5057294;28;20059;-67
2022/01/10 14:16:00;;;;;;;50.63;19.42;;;;;;;;;;5058147;28;20041;-68
2022/01/10 14:18:26;;;;;;;30.13;16.65;;;;;;;;;;5058774;28;20048;-66
2022/01/10 14:20:52;;;;;;;38.58;18.13;;;;;;;;;;5057264;28;20044;-66
2022/01/10 14:23:19;;;;;;;34.88;17.45;;;;;;;;;;5056775;28;20132;-66
2022/01/10 14:25:45;;;;;;;32.92;17.40;;;;;;;;;;5058208;28;20502;-66